createdAt,value
2019-03-31T00:01:12.165Z,71.9
2019-03-31T00:12:34.844Z,100.4
2019-03-31T00:23:19.977Z,92.1
2019-03-31T00:35:04.772Z,81.4
2019-03-31T00:47:13.576Z,77.4
2019-03-31T00:57:58.669Z,85.1
2019-03-31T01:08:45.757Z,67.6
2019-03-31T01:19:31.088Z,80.2
2019-03-31T01:32:03.464Z,94.4
2019-03-31T01:42:17.496Z,66.7
2019-03-31T01:53:03.357Z,62.6
2019-03-31T02:06:38.583Z,71.4
2019-03-31T02:16:50.842Z,55.3
2019-03-31T02:27:37.187Z,78.6
2019-03-31T02:37:51.457Z,52.0
2019-03-31T02:49:54.168Z,70.5
2019-03-31T03:00:39.173Z,73.9
2019-03-31T03:10:53.309Z,57.4
2019-03-31T03:22:27.647Z,68.5
2019-03-31T03:34:36.919Z,80.8
2019-03-31T03:44:50.996Z,59.0
2019-03-31T03:55:36.894Z,60.3
2019-03-31T04:06:22.415Z,62.1
2019-03-31T04:17:08.408Z,64.0
2019-03-31T04:28:32.360Z,58.8
2019-03-31T04:39:21.486Z,55.9
2019-03-31T04:50:48.014Z,48.2
2019-03-31T05:02:08.186Z,46.0
2019-03-31T05:12:55.439Z,49.8
2019-03-31T05:24:30.114Z,51.9
2019-03-31T05:34:44.646Z,37.1
2019-03-31T05:45:30.323Z,45.8
2019-03-31T05:56:16.034Z,41.9
2019-03-31T06:09:05.084Z,43.0
2019-03-31T06:22:19.400Z,47.7
2019-03-31T06:33:08.104Z,49.0
2019-03-31T06:43:22.307Z,40.8
2019-03-31T06:54:07.976Z,38.3
2019-03-31T07:04:22.594Z,38.0
2019-03-31T07:14:34.470Z,30.9
2019-03-31T07:25:16.153Z,28.1
2019-03-31T07:36:37.755Z,31.2
2019-03-31T07:48:22.827Z,30.0
2019-03-31T07:58:36.941Z,26.9
2019-03-31T08:09:22.677Z,36.8
2019-03-31T08:20:11.532Z,47.7
2019-03-31T08:30:57.429Z,33.2
2019-03-31T08:42:20.561Z,37.7
2019-03-31T08:53:06.734Z,28.1
2019-03-31T09:03:23.607Z,25.0
2019-03-31T09:14:46.186Z,27.5
2019-03-31T09:25:31.865Z,44.3
2019-03-31T09:37:00.918Z,25.4
2019-03-31T09:51:32.062Z,33.8
2019-03-31T10:15:35.512Z,25.8
2019-03-31T10:27:35.077Z,33.5
2019-03-31T10:40:14.743Z,30.8
2019-03-31T12:34:33.232Z,33.6
2019-03-31T13:23:56.118Z,28.6
2019-03-31T13:34:41.606Z,24.8
2019-03-31T13:48:01.375Z,26.7
2019-03-31T14:00:06.076Z,26.0
2019-03-31T14:10:23.789Z,27.5
2019-03-31T14:21:10.343Z,27.0
2019-03-31T14:33:08.779Z,28.0
2019-03-31T14:43:20.930Z,26.2
2019-03-31T14:54:08.661Z,27.5
2019-03-31T15:04:20.866Z,25.1
2019-03-31T15:15:06.395Z,29.7
2019-03-31T15:27:12.653Z,35.1
2019-03-31T15:38:35.349Z,32.6
2019-03-31T15:48:49.508Z,31.9
2019-03-31T15:59:34.571Z,27.2
2019-03-31T16:09:48.666Z,30.5
2019-03-31T16:24:33.776Z,32.0
2019-03-31T16:34:48.519Z,25.7
2019-03-31T16:46:09.207Z,27.0
2019-03-31T17:18:04.265Z,31.0
2019-03-31T17:51:31.847Z,28.4
2019-03-31T18:03:16.322Z,24.8
2019-03-31T18:14:10.173Z,25.8
2019-03-31T18:26:31.096Z,30.0
2019-03-31T18:38:41.711Z,36.7
2019-03-31T18:49:30.138Z,34.0
2019-03-31T19:00:35.248Z,25.0
2019-03-31T19:13:55.344Z,27.3
2019-03-31T19:24:04.252Z,34.1
2019-03-31T19:34:14.255Z,28.1
2019-03-31T19:44:59.982Z,26.6
2019-03-31T19:59:56.569Z,30.3
2019-03-31T20:11:26.367Z,35.5
2019-03-31T20:22:55.506Z,29.1
2019-03-31T20:36:18.984Z,31.7
2019-03-31T20:47:46.597Z,23.9
2019-03-31T20:58:32.977Z,24.3
2019-03-31T21:09:24.772Z,24.1
2019-03-31T21:19:36.639Z,37.0
2019-03-31T21:30:34.142Z,29.1
2019-03-31T21:40:47.778Z,22.9
2019-03-31T21:51:38.672Z,22.4
2019-03-31T22:04:14.732Z,22.3
2019-03-31T22:14:27.096Z,26.3
2019-03-31T22:25:30.373Z,24.5
2019-03-31T22:35:49.542Z,29.6
2019-03-31T22:46:03.206Z,21.4
2019-03-31T22:57:10.901Z,24.0
2019-03-31T23:07:25.775Z,21.5
2019-03-31T23:17:41.087Z,22.8
2019-03-31T23:27:54.584Z,24.2
2019-03-31T23:38:08.754Z,27.8
2019-03-31T23:48:23.047Z,23.9
2019-03-31T23:58:37.317Z,32.8
